• Join FlightAware (Why Join?)
  • Login
  • US Flag 
12:39PM EST


 

Airport Tracker/Info


-or-


 

Live Flight TrackerFlight Track Log ✈ SWA2955 ✈ 08-Apr-2013 ✈ KMSY - KDAL

Flight Track Log - Related Links

Times and Time Zones

All times are in EDT time to prevent confusion due to time zone crossing. See the SWA2955 flight status page for this flight to view local times or setup timezone preferences in your user account.

Time Position Orientation Groundspeed Altitude Reporting Facility
EDT Latitude Longitude Course Direction KTS MPH feet Rate Location/Type
01:35PM 29.9389 -90.2675 198° South 158 182 2,700  Level Houston Center
01:35PM 29.9275 -90.2700 191° South 170 196 3,400 2,520 Climbing Houston Center
01:36PM 29.9225 -90.3244 264° West 216 249 6,000 2,700 Climbing Houston Center
01:37PM 29.9822 -90.3792 322° Northwest 251 289 9,100 3,060 Climbing Houston Center
01:38PM 30.0472 -90.4372 322° Northwest 284 327 12,400 2,760 Climbing Houston Center
01:40PM 30.1250 -90.5064 322° Northwest 348 400 14,900 2,760 Climbing Houston Center
01:41PM 30.2044 -90.5775 322° Northwest 358 412 18,200 2,880 Climbing Houston Center
01:42PM 30.2914 -90.6503 324° Northwest 379 436 20,900 2,940 Climbing Houston Center
01:43PM 30.4025 -90.7414 325° Northwest 401 461 24,300 2,700 Climbing Houston Center
01:44PM 30.4969 -90.8181 325° Northwest 411 473 26,600 1,980 Climbing Houston Center
01:45PM 30.6000 -90.8961 327° Northwest 433 498 28,500 1,860 Climbing Houston Center
01:46PM 30.7033 -90.9772 326° Northwest 447 514 30,500 1,980 Climbing Houston Center
01:47PM 30.7994 -91.0675 321° Northwest 451 519 32,700 1,680 Climbing Houston Center
01:48PM 30.8467 -91.1958 293° West 420 483 34,000 600 Climbing Houston Center
01:49PM 30.8917 -91.3208 293° West 420 483 34,000 660 Level Houston Center
01:50PM 30.9447 -91.4714 292° West 421 484 35,400 1,500 Climbing Houston Center
01:51PM 30.9900 -91.5950 293° West 417 480 37,100 1,200 Climbing Houston Center
01:52PM 31.0325 -91.7186 292° West 414 476 38,000 420 Climbing Houston Center
01:53PM 31.0750 -91.8403 292° West 408 470 38,000  Level Houston Center
01:54PM 31.1178 -91.9631 292° West 410 472 38,000  Level Houston Center
01:55PM 31.1664 -92.1031 292° West 402 463 38,000  Level Houston Center
01:56PM 31.2078 -92.2250 292° West 405 466 38,000  Level Houston Center
01:57PM 31.2511 -92.3453 293° West 405 466 38,000  Level Houston Center
01:58PM 31.2914 -92.4667 291° West 403 464 38,000  Level Houston Center
01:59PM 31.3342 -92.5883 292° West 404 465 38,000  Level Houston Center
02:00PM 31.3850 -92.7347 292° West 408 470 38,000  Level Houston Center
02:01PM 31.4247 -92.8536 291° West 399 459 38,000  Level Houston Center
02:02PM 31.4669 -92.9750 292° West 401 461 38,000  Level Houston Center
02:03PM 31.5069 -93.0958 291° West 400 460 38,000  Level Houston Center
02:04PM 31.5481 -93.2158 292° West 399 459 38,000  Level Houston Center
02:05PM 31.5947 -93.3569 291° West 399 459 38,000  Level Houston Center
02:06PM 31.6356 -93.4775 292° West 399 459 38,000  Level Houston Center
02:07PM 31.6506 -93.5308 288° West 406 467 38,000  Level Fort Worth Center
02:08PM 31.6894 -93.6489 291° West 406 467 38,000  Level Fort Worth Center
02:09PM 31.7347 -93.7692 294° West 406 467 38,000  Level Fort Worth Center
02:10PM 31.7717 -93.8872 290° West 400 460 38,000  Level Fort Worth Center
02:11PM 31.8125 -94.0081 292° West 400 460 38,000  Level Fort Worth Center
02:12PM 31.8533 -94.1264 292° West 400 460 38,000  Level Fort Worth Center
02:13PM 31.8917 -94.2447 291° West 400 460 38,000  Level Fort Worth Center
02:14PM 31.9322 -94.3658 292° West 400 460 38,000  Level Fort Worth Center
02:15PM 31.9706 -94.4844 291° West 395 455 38,000 -420 Level Fort Worth Center
02:16PM 32.0108 -94.6033 292° West 395 455 37,200 -900 Descending Fort Worth Center
02:17PM 32.0511 -94.7269 291° West 395 455 36,200 -960 Descending Fort Worth Center
02:18PM 32.0914 -94.8533 291° West 400 460 35,300 -960 Descending Fort Worth Center
02:19PM 32.1333 -94.9772 292° West 406 467 34,300 -1,740 Descending Fort Worth Center
02:20PM 32.1733 -95.1014 291° West 406 467 31,900 -2,400 Descending Fort Worth Center
02:21PM 32.2131 -95.2256 291° West 406 467 29,500 -2,400 Descending Fort Worth Center
02:22PM 32.2528 -95.3475 291° West 401 461 27,100 -2,340 Descending Fort Worth Center
02:23PM 32.2900 -95.4622 291° West 384 442 24,900 -2,220 Descending Fort Worth Center
02:24PM 32.3253 -95.5769 290° West 374 430 22,700 -2,160 Descending Fort Worth Center
02:25PM 32.3603 -95.6869 291° West 367 422 20,600 -2,100 Descending Fort Worth Center
02:26PM 32.3950 -95.8019 290° West 357 411 18,500 -2,160 Descending Fort Worth Center
02:27PM 32.4297 -95.9069 291° West 351 404 16,300 -2,100 Descending Fort Worth Center
02:28PM 32.4581 -96.0050 289° West 346 398 14,300 -2,100 Descending Fort Worth Center
02:29PM 32.4947 -96.1178 291° West 346 398 12,100 -2,040 Descending Fort Worth Center
02:30PM 32.5250 -96.2136 291° West 333 383 10,300 -1,500 Descending Fort Worth Center
02:31PM 32.5550 -96.3117 290° West 312 359 9,200 -960 Descending Fort Worth Center
02:32PM 32.5956 -96.3925 301° West 297 342 8,400 -1,140 Descending Fort Worth Center
02:33PM 32.6419 -96.4708 305° West 297 342 7,000 -1,320 Descending Fort Worth Center
02:34PM 32.6906 -96.5444 308° West 292 336 5,800 -1,020 Descending Fort Worth Center
02:35PM 32.7492 -96.5933 325° Northwest 282 325 5,000 -720 Descending Fort Worth Center
02:36PM 32.8144 -96.6472 325° Northwest 272 313 4,400 -540 Descending Fort Worth Center
02:37PM 32.8689 -96.6886 327° Northwest 265 305 4,000 -240 Descending Fort Worth Center
02:38PM 32.9333 -96.7333 330° Northwest 246 283 4,000  Level Dallas / Fort Worth TRACON
02:39PM 33.0000 -96.7833 328° Northwest 248 285 4,000 -480 Level Dallas / Fort Worth TRACON
02:40PM 33.0000 -96.8333 270° West 222 255 3,100 -1,080 Descending Dallas / Fort Worth TRACON
02:41PM 32.9667 -96.8833 232° Southwest 199 229 2,000 -600 Descending Dallas / Fort Worth TRACON
02:42PM 32.9333 -96.9333 232° Southwest 184 212 2,000 -180 Level Dallas / Fort Worth TRACON
02:43PM 32.9000 -96.9167 157° South 161 185 1,700 -540 Descending Dallas / Fort Worth TRACON
02:44PM 32.8667 -96.8833 140° Southeast 133 153 1,000 -720 Descending Dallas / Fort Worth TRACON
02:46PM 32.8471 -96.8518 185° South  Level Estimated
02:53PM 32.8471 -96.8518 185° South  Level Estimated